Terminal Aerodrome Forecast
Issued by NWS Mt. Holly, NJ

Home | Current Version | Previous Version | Text Only | Print | Product List | Glossary On
Versions: 1 2 3 4 5 6 7 8 9 10 11 12 13 14 15 16 17 18 19 20 21 22 23 24 25 26 27
000
FTUS41 KPHI 231400 AAC
TAFACY
TAF AMD
KACY 231411Z 2314/2412 22008KT P6SM FEW010
     FM231600 19012KT P6SM SCT050
     FM240100 21005KT P6SM SCT050 BKN250 PROB30 2402/2405 4SM TSRA
      BR BKN050CB
     FM240900 29003KT 5SM BR VCSH BKN060=

USA.gov is the U.S. government's official web portal to all federal, state and local government web resources and services.